createdAt,value
2023-04-15T00:00:12.765Z,36
2023-04-15T00:02:43.551Z,36
2023-04-15T00:05:14.127Z,23
2023-04-15T00:07:44.896Z,24
2023-04-15T00:10:15.162Z,25
2023-04-15T00:12:45.618Z,20
2023-04-15T00:15:16.623Z,36
2023-04-15T00:17:47.222Z,42
2023-04-15T00:20:17.920Z,40
2023-04-15T00:22:49.108Z,27
2023-04-15T00:25:20.322Z,27
2023-04-15T00:27:51.397Z,28
2023-04-15T00:30:22.026Z,12
2023-04-15T00:32:53.026Z,16
2023-04-15T00:35:23.572Z,13
2023-04-15T00:37:54.310Z,15
2023-04-15T00:40:24.925Z,12
2023-04-15T00:42:55.640Z,16
2023-04-15T00:45:26.260Z,12
2023-04-15T00:47:57.443Z,16
2023-04-15T00:50:28.562Z,14
2023-04-15T00:52:59.128Z,16
2023-04-15T00:55:29.570Z,16
2023-04-15T00:58:00.284Z,15
2023-04-15T01:00:30.713Z,12
2023-04-15T01:03:01.761Z,8
2023-04-15T01:05:32.460Z,12
2023-04-15T01:08:03.371Z,16
2023-04-15T01:10:34.331Z,12
2023-04-15T01:13:04.884Z,12
2023-04-15T01:15:35.681Z,8
2023-04-15T01:18:06.484Z,12
2023-04-15T01:20:37.340Z,8
2023-04-15T01:23:07.839Z,11
2023-04-15T01:25:38.881Z,9
2023-04-15T01:28:09.631Z,9
2023-04-15T01:30:40.574Z,8
2023-04-15T01:33:11.279Z,8
2023-04-15T01:35:42.420Z,8
2023-04-15T01:38:12.802Z,11
2023-04-15T01:40:43.995Z,8
2023-04-15T01:43:14.873Z,5
2023-04-15T01:45:45.737Z,8
2023-04-15T01:48:16.872Z,4
2023-04-15T01:50:47.556Z,1
2023-04-15T01:53:18.450Z,4
2023-04-15T01:55:49.026Z,1
2023-04-15T01:58:20.009Z,4
2023-04-15T02:00:50.429Z,4
2023-04-15T02:03:21.948Z,4
2023-04-15T02:05:52.203Z,4
2023-04-15T02:08:23.246Z,3
2023-04-15T02:10:53.586Z,3
2023-04-15T02:13:24.144Z,1
2023-04-15T02:15:54.477Z,4
2023-04-15T02:18:25.301Z,3
2023-04-15T02:20:55.713Z,3
2023-04-15T02:23:25.913Z,0
2023-04-15T02:25:57.280Z,0
2023-04-15T02:28:28.964Z,0
2023-04-15T02:30:59.655Z,0
2023-04-15T02:33:28.748Z,0
2023-04-15T02:35:59.269Z,3
2023-04-15T02:38:31.092Z,0
2023-04-15T02:41:01.899Z,0
2023-04-15T02:43:32.672Z,0
2023-04-15T02:46:03.726Z,2
2023-04-15T02:48:34.845Z,0
2023-04-15T02:51:05.553Z,0
2023-04-15T02:53:34.749Z,0
2023-04-15T02:56:05.947Z,0
2023-04-15T02:58:37.029Z,4
2023-04-15T03:01:07.839Z,4
2023-04-15T03:03:38.888Z,0
2023-04-15T03:06:10.024Z,0
2023-04-15T03:08:41.115Z,1
2023-04-15T03:11:12.150Z,1
2023-04-15T03:13:42.965Z,4
2023-04-15T03:16:16.676Z,0
2023-04-15T03:18:47.481Z,3
2023-04-15T03:21:18.111Z,0
2023-04-15T03:23:48.955Z,0
2023-04-15T03:26:20.656Z,0
2023-04-15T03:28:52.502Z,0
2023-04-15T03:31:23.087Z,0
2023-04-15T03:33:54.113Z,0
2023-04-15T03:36:24.892Z,0
2023-04-15T03:38:59.074Z,0
2023-04-15T03:41:29.570Z,4
2023-04-15T03:44:00.012Z,4
2023-04-15T03:46:30.887Z,0
2023-04-15T03:49:02.056Z,4
2023-04-15T03:51:32.799Z,0
2023-04-15T03:54:03.540Z,0
2023-04-15T03:56:34.599Z,0
2023-04-15T03:59:05.540Z,3
2023-04-15T04:01:36.441Z,0
2023-04-15T04:04:07.363Z,0
2023-04-15T04:06:38.377Z,4
2023-04-15T04:09:09.496Z,1
2023-04-15T04:11:39.904Z,4
2023-04-15T04:14:10.206Z,0
2023-04-15T04:16:41.258Z,0
2023-04-15T04:19:12.375Z,4
2023-04-15T04:21:42.960Z,0
2023-04-15T04:24:14.051Z,1
2023-04-15T04:26:44.974Z,0
2023-04-15T04:29:15.810Z,0
2023-04-15T04:31:46.708Z,4
2023-04-15T04:34:17.364Z,4
2023-04-15T04:36:48.675Z,1
2023-04-15T04:39:19.517Z,4
2023-04-15T04:41:50.305Z,0
2023-04-15T04:44:21.512Z,0
2023-04-15T04:46:52.061Z,0
2023-04-15T04:49:23.186Z,0
2023-04-15T04:51:53.824Z,4
2023-04-15T04:54:24.387Z,3
2023-04-15T04:56:55.149Z,4
2023-04-15T04:59:30.005Z,4
2023-04-15T05:02:00.523Z,6
2023-04-15T05:04:31.763Z,4
2023-04-15T05:07:02.701Z,4
2023-04-15T05:09:33.831Z,4
2023-04-15T05:12:04.227Z,4
2023-04-15T05:14:34.605Z,1
2023-04-15T05:17:04.114Z,8
2023-04-15T05:19:34.902Z,4
2023-04-15T05:22:05.240Z,3
2023-04-15T05:24:36.059Z,4
2023-04-15T05:27:07.143Z,4
2023-04-15T05:29:38.262Z,4
2023-04-15T05:32:08.757Z,4
2023-04-15T05:34:39.923Z,4
2023-04-15T05:37:10.514Z,7
2023-04-15T05:39:41.410Z,4
2023-04-15T05:42:12.330Z,9
2023-04-15T05:44:43.427Z,4
2023-04-15T05:47:14.730Z,8
2023-04-15T05:49:46.650Z,20
2023-04-15T05:52:17.332Z,8
2023-04-15T05:54:48.074Z,11
2023-04-15T05:57:18.685Z,12
2023-04-15T05:59:49.545Z,12
2023-04-15T06:02:20.377Z,8
2023-04-15T06:04:51.324Z,8
2023-04-15T06:07:21.950Z,12
2023-04-15T06:09:52.872Z,8
2023-04-15T06:12:23.197Z,7
2023-04-15T06:14:53.629Z,4
2023-04-15T06:17:24.194Z,4
2023-04-15T06:19:54.852Z,7
2023-04-15T06:22:25.382Z,42
2023-04-15T06:24:56.017Z,11
2023-04-15T06:27:26.538Z,27
2023-04-15T06:29:56.951Z,16
2023-04-15T06:32:27.471Z,4
2023-04-15T06:34:58.545Z,4
2023-04-15T06:37:29.176Z,52
2023-04-15T06:39:59.669Z,0
2023-04-15T06:42:29.025Z,4
2023-04-15T06:45:00.046Z,0
2023-04-15T06:47:30.522Z,4
2023-04-15T06:50:01.062Z,0
2023-04-15T06:52:31.943Z,4
2023-04-15T06:55:03.679Z,8
2023-04-15T06:57:35.114Z,4
2023-04-15T07:00:05.634Z,4
2023-04-15T07:02:36.592Z,5
2023-04-15T07:05:07.037Z,4
2023-04-15T07:07:37.255Z,4
2023-04-15T07:10:08.025Z,8
2023-04-15T07:12:38.524Z,1
2023-04-15T07:15:09.120Z,4
2023-04-15T07:17:40.025Z,0
2023-04-15T07:20:10.759Z,4
2023-04-15T07:22:41.406Z,4
2023-04-15T07:25:11.888Z,8
2023-04-15T07:27:42.663Z,4
2023-04-15T07:30:13.394Z,0
2023-04-15T07:32:43.851Z,0
2023-04-15T07:35:14.732Z,0
2023-04-15T07:37:45.451Z,0
2023-04-15T07:40:16.164Z,0
2023-04-15T07:42:46.758Z,0
2023-04-15T07:45:17.275Z,0
2023-04-15T07:47:47.765Z,4
2023-04-15T07:50:18.387Z,0
2023-04-15T07:52:48.744Z,0
2023-04-15T07:55:19.013Z,4
2023-04-15T07:57:49.751Z,4
2023-04-15T08:00:20.530Z,0
2023-04-15T08:02:51.337Z,0
2023-04-15T08:05:22.353Z,0
2023-04-15T08:07:53.053Z,3
2023-04-15T08:10:23.742Z,4
2023-04-15T08:12:54.209Z,0
2023-04-15T08:15:24.599Z,4
2023-04-15T08:17:55.272Z,0
2023-04-15T08:20:25.934Z,0
2023-04-15T08:22:56.508Z,0
2023-04-15T08:25:27.758Z,4
2023-04-15T08:27:57.894Z,0
2023-04-15T08:30:28.432Z,0
2023-04-15T08:32:59.141Z,4
2023-04-15T08:35:27.680Z,4
2023-04-15T08:37:58.065Z,0
2023-04-15T08:40:28.980Z,16
2023-04-15T08:42:59.065Z,22
2023-04-15T08:45:30.717Z,4
2023-04-15T08:48:01.660Z,0
2023-04-15T08:50:32.078Z,8
2023-04-15T08:53:02.957Z,0
2023-04-15T08:55:33.130Z,0
2023-04-15T08:58:03.971Z,0
2023-04-15T09:00:35.014Z,0
2023-04-15T09:03:05.633Z,0
2023-04-15T09:05:36.002Z,0
2023-04-15T09:08:06.556Z,0
2023-04-15T09:10:36.707Z,0
2023-04-15T09:13:08.685Z,0
2023-04-15T09:15:38.905Z,0
2023-04-15T09:18:08.903Z,4
2023-04-15T09:20:39.347Z,8
2023-04-15T09:23:10.041Z,0
2023-04-15T09:25:40.438Z,4
2023-04-15T09:28:10.489Z,0
2023-04-15T09:30:41.481Z,0
2023-04-15T09:33:11.659Z,0
2023-04-15T09:35:41.825Z,0
2023-04-15T09:38:12.072Z,0
2023-04-15T09:40:43.418Z,0
2023-04-15T09:43:14.027Z,1
2023-04-15T09:45:44.081Z,1
2023-04-15T09:48:14.760Z,0
2023-04-15T09:50:45.714Z,0
2023-04-15T09:53:16.005Z,0
2023-04-15T09:55:46.903Z,0
2023-04-15T09:58:20.073Z,0
2023-04-15T10:00:50.433Z,0
2023-04-15T10:03:22.095Z,0
2023-04-15T10:05:52.253Z,0
2023-04-15T10:08:22.738Z,0
2023-04-15T10:10:53.415Z,4
2023-04-15T10:13:24.223Z,4
2023-04-15T10:15:54.572Z,9
2023-04-15T10:18:24.936Z,4
2023-04-15T10:20:55.203Z,4
2023-04-15T10:23:25.957Z,6
2023-04-15T10:25:56.580Z,0
2023-04-15T10:28:27.344Z,3
2023-04-15T10:30:58.280Z,0
2023-04-15T10:33:29.177Z,0
2023-04-15T10:36:00.799Z,2
2023-04-15T10:38:31.282Z,4
2023-04-15T10:41:02.091Z,4
2023-04-15T10:43:32.576Z,4
2023-04-15T10:46:02.487Z,0
2023-04-15T10:48:33.307Z,0
2023-04-15T10:51:03.794Z,4
2023-04-15T10:53:34.104Z,0
2023-04-15T10:56:04.506Z,12
2023-04-15T10:58:35.023Z,16
2023-04-15T11:01:05.736Z,8
2023-04-15T11:03:36.417Z,4
2023-04-15T11:06:06.885Z,8
2023-04-15T11:08:37.704Z,8
2023-04-15T11:11:08.166Z,4
2023-04-15T11:13:38.747Z,5
2023-04-15T11:16:09.199Z,1
2023-04-15T11:18:39.685Z,2
2023-04-15T11:21:10.377Z,0
2023-04-15T11:23:41.044Z,4
2023-04-15T11:26:11.575Z,11
2023-04-15T11:28:42.105Z,12
2023-04-15T11:31:13.141Z,4
2023-04-15T11:33:43.689Z,4
2023-04-15T11:36:14.025Z,4
2023-04-15T11:38:44.759Z,4
2023-04-15T11:41:15.229Z,0
2023-04-15T11:43:46.020Z,8
2023-04-15T11:46:25.312Z,0
2023-04-15T11:49:01.825Z,4
2023-04-15T11:51:33.188Z,8
2023-04-15T11:54:04.109Z,4
2023-04-15T11:56:36.096Z,1
2023-04-15T11:59:09.775Z,0
2023-04-15T12:01:40.600Z,0
2023-04-15T12:04:15.539Z,0
2023-04-15T12:06:45.809Z,4
2023-04-15T12:09:17.657Z,0
2023-04-15T12:11:49.994Z,8
2023-04-15T12:14:20.324Z,8
2023-04-15T12:16:51.685Z,8
2023-04-15T12:19:23.195Z,0
2023-04-15T12:21:53.641Z,8
2023-04-15T12:32:26.003Z,4
2023-04-15T12:45:35.639Z,4
2023-04-15T12:48:07.367Z,16
2023-04-15T12:53:15.750Z,4
2023-04-15T12:55:47.544Z,4
2023-04-15T12:58:22.610Z,5
2023-04-15T13:00:53.872Z,8
2023-04-15T13:03:30.333Z,12
2023-04-15T13:06:00.558Z,8
2023-04-15T13:08:31.260Z,4
2023-04-15T13:11:07.935Z,0
2023-04-15T13:13:38.627Z,1
2023-04-15T13:16:09.239Z,8
2023-04-15T13:18:41.676Z,15
2023-04-15T13:21:17.130Z,16
2023-04-15T13:23:48.789Z,8
2023-04-15T13:26:19.420Z,0
2023-04-15T13:28:52.180Z,0
2023-04-15T13:31:24.100Z,4
2023-04-15T13:33:59.307Z,4
2023-04-15T13:36:31.889Z,4
2023-04-15T13:39:02.393Z,0
2023-04-15T13:41:33.263Z,4
2023-04-15T13:44:07.390Z,0
2023-04-15T13:46:37.814Z,4
2023-04-15T13:49:11.384Z,0
2023-04-15T13:51:42.291Z,7
2023-04-15T13:54:16.062Z,4
2023-04-15T13:56:55.310Z,7
2023-04-15T13:59:30.811Z,4
2023-04-15T14:02:04.709Z,3
2023-04-15T14:04:35.635Z,0
2023-04-15T14:07:06.234Z,5
2023-04-15T14:09:42.880Z,4
2023-04-15T14:12:07.179Z,4
2023-04-15T14:14:43.852Z,28
2023-04-15T14:17:14.559Z,4
2023-04-15T14:19:45.333Z,0
2023-04-15T14:22:15.982Z,0
2023-04-15T14:24:46.643Z,9
2023-04-15T14:27:17.722Z,0
2023-04-15T14:29:49.161Z,0
2023-04-15T14:32:25.604Z,0
2023-04-15T14:34:56.512Z,0
2023-04-15T14:37:27.059Z,0
2023-04-15T14:39:59.706Z,0
2023-04-15T14:42:30.601Z,0
2023-04-15T14:45:02.666Z,0
2023-04-15T14:47:39.057Z,4
2023-04-15T14:50:09.722Z,4
2023-04-15T14:52:40.419Z,0
2023-04-15T14:55:11.241Z,0
2023-04-15T14:57:42.330Z,0
2023-04-15T15:00:16.113Z,4
2023-04-15T15:02:45.065Z,4
2023-04-15T15:05:15.764Z,3
2023-04-15T15:07:46.202Z,4
2023-04-15T15:10:17.180Z,4
2023-04-15T15:12:47.610Z,0
2023-04-15T15:15:28.393Z,4
2023-04-15T15:17:49.140Z,4
2023-04-15T15:20:19.897Z,0
2023-04-15T15:22:50.689Z,0
2023-04-15T15:25:21.503Z,0
2023-04-15T15:27:52.272Z,4
2023-04-15T15:30:22.910Z,0
2023-04-15T15:32:54.021Z,0
2023-04-15T15:35:24.712Z,4
2023-04-15T15:37:56.594Z,0
2023-04-15T15:40:27.351Z,1
2023-04-15T15:42:57.779Z,4
2023-04-15T15:45:28.731Z,4
2023-04-15T15:47:59.944Z,4
2023-04-15T15:50:30.189Z,4
2023-04-15T15:53:00.794Z,4
2023-04-15T15:55:31.337Z,4
2023-04-15T15:58:01.847Z,3
2023-04-15T16:00:33.026Z,0
2023-04-15T16:03:06.485Z,4
2023-04-15T16:05:35.262Z,3
2023-04-15T16:08:05.851Z,3
2023-04-15T16:10:36.604Z,3
2023-04-15T16:13:07.591Z,4
2023-04-15T16:15:38.203Z,4
2023-04-15T16:18:09.026Z,4
2023-04-15T16:20:39.613Z,4
2023-04-15T16:23:10.115Z,4
2023-04-15T16:25:40.481Z,4
2023-04-15T16:28:26.651Z,4
2023-04-15T16:30:51.042Z,0
2023-04-15T16:33:21.521Z,4
2023-04-15T16:35:52.310Z,1
2023-04-15T16:38:23.007Z,4
2023-04-15T16:40:53.801Z,4
2023-04-15T16:43:24.440Z,4
2023-04-15T16:45:55.059Z,0
2023-04-15T16:48:26.069Z,3
2023-04-15T16:50:56.854Z,3
2023-04-15T16:53:27.209Z,4
2023-04-15T16:55:58.076Z,4
2023-04-15T16:58:28.620Z,4
2023-04-15T17:00:59.892Z,4
2023-04-15T17:03:30.698Z,4
2023-04-15T17:06:00.800Z,4
2023-04-15T17:08:31.417Z,1
2023-04-15T17:11:01.738Z,4
2023-04-15T17:13:32.164Z,4
2023-04-15T17:16:03.003Z,4
2023-04-15T17:18:33.503Z,4
2023-04-15T17:21:04.141Z,2
2023-04-15T17:23:34.676Z,4
2023-04-15T17:26:05.206Z,4
2023-04-15T17:28:36.981Z,4
2023-04-15T17:31:10.871Z,4
2023-04-15T17:33:54.220Z,4
2023-04-15T17:36:12.106Z,4
2023-04-15T17:38:42.915Z,8
2023-04-15T17:41:14.426Z,8
2023-04-15T17:43:53.855Z,7
2023-04-15T17:49:20.584Z,8
2023-04-15T17:51:50.604Z,30
2023-04-15T17:54:21.344Z,65
2023-04-15T17:56:50.088Z,80
2023-04-15T17:59:20.708Z,93
2023-04-15T18:01:51.682Z,55
2023-04-15T18:04:26.618Z,39
2023-04-15T18:06:55.490Z,29
2023-04-15T18:11:56.555Z,16
2023-04-15T18:14:34.448Z,30
2023-04-15T18:17:04.614Z,33
2023-04-15T18:19:34.974Z,34
2023-04-15T18:22:05.446Z,34
2023-04-15T18:24:35.641Z,32
2023-04-15T18:27:06.265Z,25
2023-04-15T18:29:36.888Z,12
2023-04-15T18:32:07.725Z,8
2023-04-15T18:34:38.116Z,12
2023-04-15T18:37:08.486Z,10
2023-04-15T18:39:38.630Z,13
2023-04-15T18:42:09.090Z,17
2023-04-15T18:44:39.541Z,12
2023-04-15T18:47:10.269Z,11
2023-04-15T18:49:40.801Z,13
2023-04-15T18:52:14.054Z,8
2023-04-15T18:54:44.324Z,12
2023-04-15T18:57:14.560Z,12
2023-04-15T18:59:43.360Z,12
2023-04-15T19:04:48.959Z,17
2023-04-15T19:07:18.996Z,19
2023-04-15T19:09:55.620Z,24
2023-04-15T19:12:26.225Z,27
2023-04-15T19:14:56.668Z,28
2023-04-15T19:17:25.648Z,20
2023-04-15T19:19:54.592Z,17
2023-04-15T19:22:25.063Z,26
2023-04-15T19:24:55.286Z,29
2023-04-15T19:27:26.281Z,28
2023-04-15T19:29:56.333Z,24
2023-04-15T19:32:27.048Z,28
2023-04-15T19:34:57.475Z,32
2023-04-15T19:37:28.001Z,44
2023-04-15T19:40:02.719Z,42
2023-04-15T19:42:37.438Z,32
2023-04-15T19:45:07.914Z,32
2023-04-15T19:47:42.561Z,32
2023-04-15T19:50:12.525Z,37
2023-04-15T19:52:42.859Z,40
2023-04-15T19:55:14.555Z,32
2023-04-15T19:57:46.688Z,24
2023-04-15T20:00:17.091Z,24
2023-04-15T20:02:47.785Z,47
2023-04-15T20:05:18.196Z,44
2023-04-15T20:07:48.099Z,41
2023-04-15T20:10:18.491Z,28
2023-04-15T20:12:52.495Z,24
2023-04-15T20:15:23.937Z,24
2023-04-15T20:17:54.226Z,16
2023-04-15T20:20:24.689Z,19
2023-04-15T20:22:55.143Z,43
2023-04-15T20:25:25.544Z,43
2023-04-15T20:27:55.870Z,48
2023-04-15T20:30:26.560Z,44
2023-04-15T20:32:57.378Z,41
2023-04-15T20:35:27.804Z,36
2023-04-15T20:37:58.658Z,36
2023-04-15T20:40:29.455Z,38
2023-04-15T20:43:00.243Z,36
2023-04-15T20:45:30.700Z,37
2023-04-15T20:48:01.090Z,25
2023-04-15T20:50:32.331Z,28
2023-04-15T20:53:02.707Z,24
2023-04-15T20:55:33.038Z,24
2023-04-15T20:58:03.627Z,26
2023-04-15T21:00:34.873Z,20
2023-04-15T21:03:05.529Z,24
2023-04-15T21:05:36.263Z,20
2023-04-15T21:08:06.912Z,20
2023-04-15T21:10:37.017Z,19
2023-04-15T21:13:07.610Z,20
2023-04-15T21:15:38.277Z,23
2023-04-15T21:18:09.091Z,22
2023-04-15T21:20:39.924Z,23
2023-04-15T21:23:12.548Z,20
2023-04-15T21:25:41.450Z,25
2023-04-15T21:28:12.516Z,27
2023-04-15T21:30:42.910Z,21
2023-04-15T21:33:13.724Z,16
2023-04-15T21:35:44.604Z,13
2023-04-15T21:38:15.237Z,16
2023-04-15T21:40:45.896Z,16
2023-04-15T21:43:16.281Z,16
2023-04-15T21:45:49.253Z,20
2023-04-15T21:48:17.670Z,17
2023-04-15T21:50:48.778Z,18
2023-04-15T21:53:19.514Z,16
2023-04-15T21:55:54.721Z,16
2023-04-15T21:58:25.384Z,16
2023-04-15T22:00:56.197Z,16
2023-04-15T22:03:27.143Z,19
2023-04-15T22:05:57.961Z,29
2023-04-15T22:08:28.821Z,29
2023-04-15T22:10:59.595Z,31
2023-04-15T22:13:30.103Z,31
2023-04-15T22:16:00.934Z,24
2023-04-15T22:18:31.693Z,33
2023-04-15T22:21:02.401Z,32
2023-04-15T22:23:37.087Z,24
2023-04-15T22:26:08.243Z,32
2023-04-15T22:28:38.956Z,36
2023-04-15T22:31:13.003Z,32
2023-04-15T22:33:50.190Z,32
2023-04-15T22:36:20.759Z,37
2023-04-15T22:38:51.121Z,37
2023-04-15T22:41:21.464Z,34
2023-04-15T22:43:52.411Z,32
2023-04-15T22:46:22.654Z,32
2023-04-15T22:48:53.320Z,33
2023-04-15T22:51:24.220Z,32
2023-04-15T22:53:55.041Z,37
2023-04-15T22:56:25.650Z,33
2023-04-15T22:58:56.491Z,40
2023-04-15T23:01:26.898Z,36
2023-04-15T23:04:01.023Z,37
2023-04-15T23:06:28.148Z,36
2023-04-15T23:08:57.219Z,40
2023-04-15T23:11:27.730Z,40
2023-04-15T23:13:58.497Z,40
2023-04-15T23:16:29.134Z,36
2023-04-15T23:18:59.843Z,32
2023-04-15T23:21:30.474Z,28
2023-04-15T23:24:00.931Z,32
2023-04-15T23:26:31.624Z,32
2023-04-15T23:29:02.344Z,37
2023-04-15T23:31:32.977Z,38
2023-04-15T23:34:03.946Z,40
2023-04-15T23:36:34.676Z,37
2023-04-15T23:39:05.623Z,36
2023-04-15T23:41:36.683Z,37
2023-04-15T23:44:07.664Z,37
2023-04-15T23:46:38.816Z,41
2023-04-15T23:49:09.638Z,39
2023-04-15T23:51:40.477Z,42
2023-04-15T23:54:11.471Z,36
2023-04-15T23:56:42.246Z,36
2023-04-15T23:59:12.982Z,37
